Olah — J8Y3743 — position and weather

sailwx.info

Track history (hours):
 
Tides and Currents Weather Stations Pressure Air Temp Water Temp Dewpoint Dewpoint Depression Visibility Wind Speed Wind Dir Waves Ship Positions

Olah

Last reported at 2014-Sep-28 09:28 UTC. Time now 2014-Oct-02 12:26 UTC.
Position N 43°34' E 007°05'.

Length 47 m; draft 3.5 m.

Type: Pleasure craft. MMSI: 375275000.

Date/timePositionNaut miles runAvg speedWind from/ knotsBaromVisibWave heightAir tempDewpointWater temp
2014-Sep-28 09:28N 43°34' E 007°05'3 2.9
2014-Sep-28 08:33N 43°32' E 007°02'0 0.1
2014-Sep-28 07:22N 43°32' E 007°02'0 0.0
2014-Sep-28 06:33N 43°32' E 007°02'0 0.0
2014-Sep-28 05:33N 43°32' E 007°02'0 0.0
2014-Sep-28 04:25N 43°32' E 007°02'0 0.0
2014-Sep-28 03:31N 43°32' E 007°02'0 0.0
2014-Sep-28 02:32N 43°32' E 007°02'0 0.0
2014-Sep-28 01:33N 43°32' E 007°02'0 0.0
2014-Sep-28 00:24N 43°32' E 007°02'0 0.0
2014-Sep-27 23:33N 43°32' E 007°02'0 0.0
2014-Sep-27 22:25N 43°32' E 007°02'0 0.0
2014-Sep-27 21:25N 43°32' E 007°02'0 0.0
2014-Sep-27 19:16N 43°32' E 007°02'0 0.0
2014-Sep-27 18:32N 43°32' E 007°02'0 0.0
2014-Sep-27 17:33N 43°32' E 007°02'0 0.0
2014-Sep-27 16:33N 43°32' E 007°02'0 0.0
2014-Sep-27 15:33N 43°32' E 007°02'0 0.0
2014-Sep-27 14:33N 43°32' E 007°02'0 0.0
2014-Sep-27 13:33N 43°32' E 007°02'5 4.9
2014-Sep-27 12:34N 43°32' E 007°09'7 3.4
2014-Sep-27 10:29N 43°39' E 007°11'  
2014-Sep-24 08:33N 43°41' E 007°23'3 0.1
2014-Sep-23 10:13N 43°42' E 007°19'2 2.9
2014-Sep-23 09:33N 43°40' E 007°20'8 8.2
2014-Sep-23 08:33N 43°35' E 007°12'6 0.5
2014-Sep-22 21:12N 43°34' E 007°05'  
Track history (hours):
 
Tides and Currents Weather Stations Pressure Air Temp Water Temp Dewpoint Dewpoint Depression Visibility Wind Speed Wind Dir Waves Ship Positions

Olah

Last reported at 2014-Sep-28 09:28 UTC. Time now 2014-Oct-02 12:26 UTC.
Position N 43°34' E 007°05'.

Length 47 m; draft 3.5 m.

Type: Pleasure craft. MMSI: 375275000.

Date/timePositionNaut miles runAvg speedWind from/ knotsBaromVisibWave heightAir tempDewpointWater temp
2014-Sep-28 09:28N 43°34' E 007°05'3 2.9
2014-Sep-28 08:33N 43°32' E 007°02'0 0.1
2014-Sep-28 07:22N 43°32' E 007°02'0 0.0
2014-Sep-28 06:33N 43°32' E 007°02'0 0.0
2014-Sep-28 05:33N 43°32' E 007°02'0 0.0
2014-Sep-28 04:25N 43°32' E 007°02'0 0.0
2014-Sep-28 03:31N 43°32' E 007°02'0 0.0
2014-Sep-28 02:32N 43°32' E 007°02'0 0.0
2014-Sep-28 01:33N 43°32' E 007°02'0 0.0
2014-Sep-28 00:24N 43°32' E 007°02'0 0.0
2014-Sep-27 23:33N 43°32' E 007°02'0 0.0
2014-Sep-27 22:25N 43°32' E 007°02'0 0.0
2014-Sep-27 21:25N 43°32' E 007°02'0 0.0
2014-Sep-27 19:16N 43°32' E 007°02'0 0.0
2014-Sep-27 18:32N 43°32' E 007°02'0 0.0
2014-Sep-27 17:33N 43°32' E 007°02'0 0.0
2014-Sep-27 16:33N 43°32' E 007°02'0 0.0
2014-Sep-27 15:33N 43°32' E 007°02'0 0.0
2014-Sep-27 14:33N 43°32' E 007°02'0 0.0
2014-Sep-27 13:33N 43°32' E 007°02'5 4.9
2014-Sep-27 12:34N 43°32' E 007°09'7 3.4
2014-Sep-27 10:29N 43°39' E 007°11'  
2014-Sep-24 08:33N 43°41' E 007°23'3 0.1
2014-Sep-23 10:13N 43°42' E 007°19'2 2.9
2014-Sep-23 09:33N 43°40' E 007°20'8 8.2
2014-Sep-23 08:33N 43°35' E 007°12'6 0.5
2014-Sep-22 21:12N 43°34' E 007°05'  

Dump ship's entire track history